Time;durP1;ratioP1;P1;durP2;ratioP2;P2;SDS_P1;SDS_P2;PMS_P1;PMS_P2;Temp;Humidity;BMP_temperature;BMP_pressure;BME280_temperature;BME280_humidity;BME280_pressure;Samples;Min_cycle;Max_cycle;Signal;HPM_P1;HPM_P2
2021/12/31 00:00:05;;;;;;;;;;;;;;;;;;;;;
2021/12/31 00:00:47;;;;;;;5.60;2.45;;;;;;;12.17;100.00;101187.97;823914;23;833;-87
2021/12/31 00:01:13;;;;;;;5.45;2.63;;;;;;;12.13;100.00;101188.84;823528;24;1250;-86
2021/12/31 00:02:28;;;;;;;7.10;2.47;;;;;;;12.11;100.00;101185.34;802464;24;4705;-86
2021/12/31 00:02:53;;;;;;;6.82;2.65;;;;;;;12.08;100.00;101190.59;815896;24;1361;-87
2021/12/31 00:03:23;;;;;;;5.63;2.40;;;;;;;12.04;100.00;101188.88;823227;24;1318;-86
2021/12/31 00:03:44;;;;;;;5.32;2.22;;;;;;;12.04;100.00;101209.84;826941;23;1360;-87
2021/12/31 00:04:10;;;;;;;5.78;2.40;;;;;;;12.05;100.00;101186.25;830797;23;1285;-88
2021/12/31 00:04:59;;;;;;;6.20;2.40;;;;;;;12.06;100.00;101181.91;809316;24;5145;-87
2021/12/31 00:05:40;;;;;;;7.07;2.78;;;;;;;12.15;100.00;101196.72;815019;24;1247;-88
2021/12/31 00:06:04;;;;;;;5.43;2.63;;;;;;;12.18;100.00;101204.56;827677;23;841;-87
2021/12/31 00:06:24;;;;;;;6.80;2.63;;;;;;;12.16;100.00;101207.19;825378;23;1129;-87
2021/12/31 00:06:47;;;;;;;6.22;2.70;;;;;;;12.19;100.00;101204.56;819324;24;1431;-87
2021/12/31 00:07:13;;;;;;;6.55;2.85;;;;;;;12.40;100.00;101184.38;821024;24;843;-88
2021/12/31 00:07:39;;;;;;;5.25;2.45;;;;;;;12.43;100.00;101207.97;814619;24;4573;-87
2021/12/31 00:07:59;;;;;;;7.10;2.50;;;;;;;12.35;100.00;101200.16;814531;24;1290;-87
2021/12/31 00:08:20;;;;;;;6.53;2.50;;;;;;;12.36;100.00;101208.88;814730;24;1268;-87
2021/12/31 00:08:58;;;;;;;5.50;2.50;;;;;;;12.40;100.00;101200.13;811711;24;1219;-86
2021/12/31 00:09:22;;;;;;;6.38;2.60;;;;;;;12.27;100.00;101200.16;818997;24;1279;-87
2021/12/31 00:09:48;;;;;;;5.22;2.67;;;;;;;12.21;100.00;101205.44;823144;24;1412;-87
2021/12/31 00:10:13;;;;;;;5.88;2.42;;;;;;;12.17;100.00;101182.72;818865;24;4434;-87
2021/12/31 00:10:44;;;;;;;7.30;2.58;;;;;;;12.14;100.00;101206.31;818969;24;1345;-86
2021/12/31 00:11:11;;;;;;;9.23;2.55;;;;;;;12.09;100.00;101197.59;818274;24;1366;-88
2021/12/31 00:11:33;;;;;;;6.75;2.60;;;;;;;12.16;100.00;101211.56;814372;24;1318;-87
2021/12/31 00:11:56;;;;;;;6.47;2.47;;;;;;;12.13;100.00;101222.94;822307;24;1205;-87
2021/12/31 00:12:17;;;;;;;5.82;2.42;;;;;;;12.37;100.00;101202.75;825799;23;1258;-87
2021/12/31 00:12:42;;;;;;;7.22;2.45;;;;;;;12.44;100.00;101179.13;826273;23;1364;-87
2021/12/31 00:13:23;;;;;;;6.88;2.50;;;;;;;12.36;100.00;101201.00;801088;24;4357;-88
2021/12/31 00:14:07;;;;;;;7.32;2.55;;;;;;;12.40;100.00;101215.84;822010;24;1301;-87
2021/12/31 00:14:35;;;;;;;6.32;2.35;;;;;;;12.30;100.00;101177.44;821916;24;928;-87
2021/12/31 00:15:17;;;;;;;7.32;2.67;;;;;;;12.35;100.00;101178.28;819911;24;679;-88
2021/12/31 00:15:37;;;;;;;6.10;2.53;;;;;;;12.28;100.00;101198.44;822440;23;1316;-87
2021/12/31 00:17:22;;;;;;;6.72;2.53;;;;;;;12.30;100.00;101208.91;819745;24;4743;-87
2021/12/31 00:17:47;;;;;;;6.50;2.58;;;;;;;12.23;100.00;101201.03;826557;23;1328;-88
2021/12/31 00:18:11;;;;;;;6.35;2.53;;;;;;;12.16;100.00;101182.75;832305;23;967;-87
2021/12/31 00:18:39;;;;;;;5.65;2.22;;;;;;;12.15;100.00;101197.56;826555;23;1369;-87
2021/12/31 00:19:19;;;;;;;5.78;2.60;;;;;;;12.16;100.00;101183.59;815663;24;1447;-88
2021/12/31 00:20:25;;;;;;;5.93;2.60;;;;;;;12.21;100.00;101180.94;821452;24;4904;-87
2021/12/31 00:20:55;;;;;;;7.00;2.72;;;;;;;12.19;100.00;101180.97;811392;24;1530;-87
2021/12/31 00:21:16;;;;;;;6.55;2.50;;;;;;;12.17;100.00;101176.59;818110;24;1352;-87
2021/12/31 00:21:42;;;;;;;6.13;2.40;;;;;;;12.17;100.00;101203.69;820508;23;1241;-88
2021/12/31 00:23:22;;;;;;;;;;;;;;;;;;;;;
2021/12/31 00:23:51;;;;;;;5.43;2.50;;;;;;;12.34;100.00;101180.03;829210;23;887;-88
2021/12/31 00:24:12;;;;;;;4.97;2.53;;;;;;;12.35;100.00;101180.91;828097;23;955;-87
2021/12/31 00:24:33;;;;;;;6.15;2.55;;;;;;;12.30;100.00;101215.00;822368;23;1155;-88
2021/12/31 00:24:53;;;;;;;7.32;2.83;;;;;;;12.33;100.00;101177.44;818453;24;1197;-87
2021/12/31 00:25:14;;;;;;;8.50;3.03;;;;;;;12.32;100.00;101196.66;821938;23;4257;-87
2021/12/31 00:25:39;;;;;;;6.35;2.60;;;;;;;12.33;100.00;101170.44;826610;23;1185;-87
2021/12/31 00:25:59;;;;;;;5.38;2.38;;;;;;;12.36;100.00;101207.13;830444;23;1305;-88
2021/12/31 00:26:22;;;;;;;6.17;2.37;;;;;;;12.33;100.00;101178.28;830460;23;1198;-87
2021/12/31 00:27:15;;;;;;;7.03;2.55;;;;;;;12.27;100.00;101194.91;824362;24;825;-87
2021/12/31 00:27:52;;;;;;;6.47;2.60;;;;;;;12.21;100.00;101189.72;826358;23;1333;-87
2021/12/31 00:28:13;;;;;;;7.20;2.60;;;;;;;12.19;100.00;101215.03;829035;23;4231;-87
2021/12/31 00:28:33;;;;;;;6.83;2.70;;;;;;;12.17;100.00;101169.63;825051;23;1272;-87
2021/12/31 00:28:54;;;;;;;6.85;2.72;;;;;;;12.21;100.00;101192.31;827050;23;1208;-87
2021/12/31 00:29:15;;;;;;;6.93;2.63;;;;;;;12.33;100.00;101186.16;827349;23;1162;-88
2021/12/31 00:29:35;;;;;;;6.50;2.60;;;;;;;12.30;100.00;101169.59;826826;23;1174;-87
2021/12/31 00:29:56;;;;;;;7.07;2.42;;;;;;;12.26;100.00;101193.16;822946;24;1271;-88
2021/12/31 00:30:17;;;;;;;7.73;2.57;;;;;;;12.24;100.00;101197.56;819005;24;1131;-87
2021/12/31 00:30:39;;;;;;;6.63;2.45;;;;;;;12.21;100.00;101173.97;817894;24;1232;-87
2021/12/31 00:31:01;;;;;;;5.85;2.53;;;;;;;12.20;100.00;101193.19;822415;24;1205;-87
2021/12/31 00:31:21;;;;;;;5.53;2.50;;;;;;;12.15;100.00;101196.72;829169;23;4230;-87
2021/12/31 00:31:42;;;;;;;6.07;2.60;;;;;;;12.11;100.00;101193.22;826602;23;1253;-88
2021/12/31 00:32:03;;;;;;;8.10;2.78;;;;;;;12.14;100.00;101179.22;817713;24;1100;-88
2021/12/31 00:32:24;;;;;;;5.57;2.45;;;;;;;12.12;100.00;101181.00;819985;24;758;-87
2021/12/31 00:32:50;;;;;;;5.82;2.55;;;;;;;12.07;100.00;101174.03;822118;24;1460;-88
2021/12/31 00:33:18;;;;;;;5.72;2.35;;;;;;;12.07;100.00;101202.84;826711;23;1139;-88
2021/12/31 00:33:39;;;;;;;5.43;2.40;;;;;;;12.04;100.00;101176.63;826646;23;1179;-88
2021/12/31 00:34:00;;;;;;;7.53;2.60;;;;;;;12.03;100.00;101189.75;823617;24;1007;-87
2021/12/31 00:34:24;;;;;;;6.20;2.50;;;;;;;11.99;100.00;101172.28;821641;23;4213;-88
2021/12/31 00:34:52;;;;;;;8.15;2.83;;;;;;;11.96;100.00;101174.91;826741;23;1264;-88
2021/12/31 00:35:12;;;;;;;8.10;2.97;;;;;;;11.93;100.00;101192.38;826482;23;1277;-88
2021/12/31 00:35:34;;;;;;;5.60;2.53;;;;;;;11.92;100.00;101171.38;822782;23;1225;-87
2021/12/31 00:36:01;;;;;;;5.57;2.40;;;;;;;11.93;100.00;101175.75;818821;24;1252;-87
2021/12/31 00:36:21;;;;;;;5.28;2.25;;;;;;;11.91;100.00;101199.34;822202;24;1296;-88
2021/12/31 00:36:45;;;;;;;4.90;2.30;;;;;;;11.90;100.00;101174.00;822462;24;1391;-88
2021/12/31 00:37:05;;;;;;;5.65;2.58;;;;;;;11.89;100.00;101174.91;819113;24;1241;-87
2021/12/31 00:37:34;;;;;;;6.27;2.83;;;;;;;11.88;100.00;101201.09;818366;24;4280;-88
2021/12/31 00:37:55;;;;;;;8.40;2.80;;;;;;;11.86;100.00;101211.56;822526;24;1253;-88
2021/12/31 00:38:16;;;;;;;6.18;2.50;;;;;;;11.86;100.00;101181.88;818947;24;1412;-88
2021/12/31 00:38:37;;;;;;;5.55;2.47;;;;;;;11.84;100.00;101212.47;815181;24;1246;-87
2021/12/31 00:39:02;;;;;;;6.85;2.90;;;;;;;11.84;100.00;101184.50;815840;24;1255;-88
2021/12/31 00:39:23;;;;;;;6.82;2.60;;;;;;;11.84;100.00;101181.91;815114;24;1223;-87
2021/12/31 00:39:44;;;;;;;7.57;2.80;;;;;;;11.82;100.00;101211.59;819594;24;1355;-88
2021/12/31 00:40:08;;;;;;;6.55;2.53;;;;;;;11.81;100.00;101176.66;819427;24;1937;-88
2021/12/31 00:40:28;;;;;;;6.03;2.45;;;;;;;11.82;100.00;101178.38;818417;24;4270;-88
2021/12/31 00:40:49;;;;;;;8.13;2.65;;;;;;;11.80;100.00;101190.63;815423;24;1213;-87
2021/12/31 00:41:10;;;;;;;7.40;2.60;;;;;;;11.79;100.00;101173.16;816079;24;857;-87
2021/12/31 00:41:31;;;;;;;5.97;2.50;;;;;;;11.79;100.00;101175.78;822047;24;1327;-88
2021/12/31 00:41:52;;;;;;;7.23;2.73;;;;;;;11.80;100.00;101174.06;822750;23;1125;-88
2021/12/31 00:42:12;;;;;;;6.75;3.10;;;;;;;11.79;100.00;101178.41;824351;23;1019;-87
2021/12/31 00:42:33;;;;;;;7.50;2.67;;;;;;;11.78;100.00;101197.59;822040;24;1220;-87
2021/12/31 00:42:54;;;;;;;9.25;2.53;;;;;;;11.81;100.00;101184.53;826226;23;1097;-87
2021/12/31 00:43:15;;;;;;;8.68;2.58;;;;;;;11.87;100.00;101186.25;822114;23;4252;-88
2021/12/31 00:43:35;;;;;;;6.03;2.60;;;;;;;11.86;100.00;101195.84;818946;24;1220;-88
2021/12/31 00:43:56;;;;;;;5.72;2.50;;;;;;;11.88;100.00;101195.84;828441;23;983;-87
2021/12/31 00:44:16;;;;;;;5.57;2.50;;;;;;;11.87;100.00;101202.84;822872;23;1211;-88
2021/12/31 00:44:37;;;;;;;7.20;2.73;;;;;;;11.88;100.00;101172.25;821924;24;1082;-87
2021/12/31 00:45:00;;;;;;;6.88;2.60;;;;;;;11.86;100.00;101195.84;823120;23;1328;-87
2021/12/31 00:45:27;;;;;;;6.53;2.50;;;;;;;11.86;100.00;101187.13;822420;23;1217;-87
2021/12/31 00:45:48;;;;;;;6.63;2.67;;;;;;;11.97;100.00;101172.28;822872;24;1257;-88
2021/12/31 00:46:09;;;;;;;5.72;2.60;;;;;;;11.99;100.00;101167.03;814779;24;4245;-87
2021/12/31 00:46:32;;;;;;;5.40;2.40;;;;;;;11.96;100.00;101181.00;819768;24;898;-87
2021/12/31 00:46:53;;;;;;;6.18;2.60;;;;;;;11.99;100.00;101193.25;815518;24;1423;-87
2021/12/31 00:47:17;;;;;;;6.67;2.57;;;;;;;11.98;100.00;101196.75;819974;24;1172;-88
2021/12/31 00:47:38;;;;;;;5.22;2.40;;;;;;;12.10;100.00;101180.97;826442;23;1493;-88
2021/12/31 00:47:59;;;;;;;5.47;2.40;;;;;;;12.09;100.00;101181.88;830358;23;1300;-87
2021/12/31 00:48:20;;;;;;;5.13;2.30;;;;;;;12.06;100.00;101181.91;827173;23;1229;-88
2021/12/31 00:48:50;;;;;;;5.72;2.72;;;;;;;12.01;100.00;101186.25;829233;23;825;-88
2021/12/31 00:49:12;;;;;;;6.68;2.53;;;;;;;12.15;100.00;101189.72;810275;24;4320;-87
2021/12/31 00:49:32;;;;;;;7.00;2.53;;;;;;;12.16;100.00;101173.13;815019;24;1375;-88
2021/12/31 00:49:53;;;;;;;7.03;2.47;;;;;;;12.16;100.00;101172.25;815991;24;1295;-87
2021/12/31 00:50:15;;;;;;;6.05;2.42;;;;;;;12.10;100.00;101199.31;815238;24;1290;-88
2021/12/31 00:50:37;;;;;;;6.60;2.50;;;;;;;12.12;100.00;101197.59;822781;24;1222;-88
2021/12/31 00:50:58;;;;;;;5.63;2.67;;;;;;;12.08;100.00;101190.59;819317;24;1299;-88
2021/12/31 00:51:18;;;;;;;5.47;2.57;;;;;;;12.15;100.00;101168.75;824149;23;863;-87
2021/12/31 00:51:39;;;;;;;5.68;2.50;;;;;;;12.13;100.00;101195.81;823616;24;963;-88
2021/12/31 00:51:59;;;;;;;5.63;2.50;;;;;;;12.18;100.00;101192.31;823248;23;1179;-87
2021/12/31 00:52:20;;;;;;;5.75;2.20;;;;;;;12.16;100.00;101167.00;821634;23;4228;-87
2021/12/31 00:52:42;;;;;;;5.82;2.20;;;;;;;12.13;100.00;101162.66;823199;24;1325;-87
2021/12/31 00:53:04;;;;;;;5.93;2.28;;;;;;;12.19;100.00;101180.09;815484;24;1528;-87
2021/12/31 00:53:25;;;;;;;5.80;2.35;;;;;;;12.19;100.00;101180.97;818829;24;1403;-88
2021/12/31 00:53:46;;;;;;;5.72;2.20;;;;;;;12.17;100.00;101195.84;823454;24;1088;-87
2021/12/31 00:54:09;;;;;;;5.85;2.35;;;;;;;12.14;100.00;101184.47;826378;23;1225;-87
2021/12/31 00:54:30;;;;;;;5.78;2.53;;;;;;;12.08;100.00;101170.50;826791;23;1140;-87
2021/12/31 00:54:51;;;;;;;6.05;2.50;;;;;;;12.07;100.00;101183.63;832130;23;980;-88
2021/12/31 00:55:12;;;;;;;4.87;2.23;;;;;;;12.07;100.00;101179.28;829481;23;4255;-88
2021/12/31 00:55:33;;;;;;;5.25;2.40;;;;;;;12.21;100.00;101194.94;831823;23;1003;-87
2021/12/31 00:55:54;;;;;;;4.47;2.17;;;;;;;12.34;100.00;101182.66;819675;23;1275;-87
2021/12/31 00:56:15;;;;;;;5.43;2.00;;;;;;;12.33;100.00;101175.66;818793;24;1096;-88
2021/12/31 00:56:35;;;;;;;5.88;2.40;;;;;;;12.39;100.00;101195.75;821943;24;1368;-88
2021/12/31 00:57:02;;;;;;;5.13;2.30;;;;;;;12.42;100.00;101161.69;826476;23;1321;-87
2021/12/31 00:57:25;;;;;;;6.25;2.50;;;;;;;12.47;100.00;101162.50;830362;23;1087;-87
2021/12/31 00:57:45;;;;;;;6.28;2.40;;;;;;;12.53;100.00;101180.84;822226;23;1311;-87
2021/12/31 00:58:07;;;;;;;5.77;2.30;;;;;;;12.48;100.00;101181.75;822969;23;1238;-87
2021/12/31 00:58:27;;;;;;;7.05;2.50;;;;;;;12.43;100.00;101161.66;816696;23;4287;-87
2021/12/31 00:58:48;;;;;;;5.87;2.10;;;;;;;12.42;100.00;101164.28;826735;23;1234;-88
2021/12/31 00:59:09;;;;;;;5.75;2.10;;;;;;;12.37;100.00;101184.41;829938;23;1523;-88
2021/12/31 00:59:34;;;;;;;6.38;2.35;;;;;;;12.33;100.00;101190.53;831357;23;757;-87
2021/12/31 00:59:58;;;;;;;6.20;2.30;;;;;;;12.26;100.00;101166.94;827327;23;1280;-88
2021/12/31 01:00:18;;;;;;;5.35;2.25;;;;;;;12.23;100.00;101206.28;823075;24;1305;-88
2021/12/31 01:00:39;;;;;;;5.43;2.15;;;;;;;12.20;100.00;101180.09;821886;23;1269;-88
2021/12/31 01:01:00;;;;;;;6.90;2.40;;;;;;;12.15;100.00;101165.25;826311;23;1373;-88
2021/12/31 01:01:24;;;;;;;6.10;2.45;;;;;;;12.11;100.00;101190.59;819939;24;4229;-88
2021/12/31 01:01:45;;;;;;;7.50;2.40;;;;;;;12.08;100.00;101167.88;819570;24;920;-87
2021/12/31 01:02:06;;;;;;;5.78;2.10;;;;;;;12.06;100.00;101205.47;819486;24;1258;-87
2021/12/31 01:02:28;;;;;;;5.70;2.10;;;;;;;12.03;100.00;101194.97;818678;24;1191;-87
2021/12/31 01:02:51;;;;;;;5.15;2.28;;;;;;;11.98;100.00;101183.66;818486;24;1340;-87
2021/12/31 01:03:12;;;;;;;4.82;2.38;;;;;;;11.96;100.00;101178.41;823948;24;915;-87
2021/12/31 01:03:33;;;;;;;5.97;2.30;;;;;;;11.92;100.00;101190.63;822691;24;1305;-88
2021/12/31 01:03:53;;;;;;;5.40;2.30;;;;;;;11.94;100.00;101201.13;825936;23;1127;-88
2021/12/31 01:04:17;;;;;;;6.93;2.50;;;;;;;11.90;100.00;101174.00;816194;24;4231;-87
2021/12/31 01:04:43;;;;;;;6.25;2.42;;;;;;;11.90;100.00;101176.63;823283;23;1368;-87
2021/12/31 01:05:07;;;;;;;5.25;2.22;;;;;;;11.95;100.00;101176.69;820079;24;1321;-87
2021/12/31 01:05:28;;;;;;;6.50;2.28;;;;;;;11.93;100.00;101179.28;827530;23;1456;-87
2021/12/31 01:05:51;;;;;;;6.65;2.22;;;;;;;11.92;100.00;101167.03;830930;23;1207;-88
2021/12/31 01:06:22;;;;;;;6.85;2.30;;;;;;;11.91;100.00;101167.91;832936;23;1035;-87
2021/12/31 01:06:42;;;;;;;6.00;2.40;;;;;;;11.91;100.00;101194.09;831342;23;1193;-87
2021/12/31 01:07:03;;;;;;;5.43;2.30;;;;;;;11.90;100.00;101194.97;826019;23;1240;-88
2021/12/31 01:07:24;;;;;;;5.93;2.50;;;;;;;11.88;100.00;101170.53;821788;23;4236;-88
2021/12/31 01:07:45;;;;;;;6.78;2.55;;;;;;;11.87;100.00;101166.16;832456;23;844;-88
2021/12/31 01:08:11;;;;;;;6.60;2.25;;;;;;;11.95;100.00;101174.06;832142;23;975;-88
2021/12/31 01:08:32;;;;;;;5.88;2.40;;;;;;;11.98;100.00;101189.75;827832;23;826;-88
2021/12/31 01:08:53;;;;;;;6.00;2.40;;;;;;;11.96;100.00;101169.69;824880;24;861;-88
2021/12/31 01:09:13;;;;;;;6.22;2.30;;;;;;;11.96;100.00;101196.72;826373;23;1183;-87
2021/12/31 01:09:35;;;;;;;6.18;2.60;;;;;;;11.93;100.00;101171.41;819386;24;1145;-87
2021/12/31 01:09:56;;;;;;;7.43;2.47;;;;;;;11.89;100.00;101167.06;826371;23;1302;-88
2021/12/31 01:10:18;;;;;;;6.40;2.40;;;;;;;11.89;100.00;101167.06;817989;24;4270;-88
2021/12/31 01:10:39;;;;;;;5.80;2.40;;;;;;;11.95;100.00;101173.16;822316;24;1384;-88
2021/12/31 01:11:03;;;;;;;5.13;2.10;;;;;;;12.17;100.00;101182.72;818954;24;1195;-87
2021/12/31 01:11:24;;;;;;;4.32;2.10;;;;;;;12.20;100.00;101187.97;815434;24;1304;-88
2021/12/31 01:11:48;;;;;;;5.95;2.42;;;;;;;12.23;100.00;101182.69;823245;23;1705;-87
2021/12/31 01:12:10;;;;;;;6.18;2.30;;;;;;;12.29;100.00;101178.31;819534;24;1413;-87
2021/12/31 01:12:31;;;;;;;4.50;2.00;;;;;;;12.27;100.00;101181.81;822468;24;1305;-88
2021/12/31 01:12:55;;;;;;;5.07;2.03;;;;;;;12.24;100.00;101194.06;825984;23;1325;-88
2021/12/31 01:13:26;;;;;;;6.07;2.17;;;;;;;12.20;100.00;101206.31;821959;23;4257;-87
2021/12/31 01:14:00;;;;;;;5.47;2.22;;;;;;;12.14;100.00;101208.06;823433;24;1401;-88
2021/12/31 01:14:56;;;;;;;6.82;2.45;;;;;;;12.05;100.00;101188.00;826790;23;1095;-88
2021/12/31 01:15:36;;;;;;;5.43;2.50;;;;;;;12.24;100.00;101179.22;827019;23;1255;-87
2021/12/31 01:16:00;;;;;;;5.47;2.10;;;;;;;12.29;100.00;101194.03;823146;24;1347;-88
2021/12/31 01:16:36;;;;;;;5.40;2.35;;;;;;;12.21;100.00;101200.19;824202;23;4224;-87
2021/12/31 01:17:01;;;;;;;5.63;2.30;;;;;;;12.17;100.00;101169.63;827980;23;860;-87
2021/12/31 01:17:41;;;;;;;5.30;2.20;;;;;;;12.23;100.00;101168.72;822681;24;1316;-88
2021/12/31 01:18:27;;;;;;;5.70;2.17;;;;;;;12.27;100.00;101171.31;818159;24;1273;-87
2021/12/31 01:19:48;;;;;;;5.93;2.13;;;;;;;12.25;100.00;101180.06;817904;24;1326;-87
2021/12/31 01:20:09;;;;;;;6.65;2.20;;;;;;;12.17;100.00;101169.63;823591;24;1981;-87
2021/12/31 01:20:33;;;;;;;5.80;2.13;;;;;;;12.14;100.00;101174.00;819579;23;1345;-87
2021/12/31 01:20:56;;;;;;;5.63;2.10;;;;;;;12.12;100.00;101170.53;820948;24;1237;-87
2021/12/31 01:21:20;;;;;;;4.95;2.13;;;;;;;12.09;100.00;101164.41;823010;23;1304;-87
2021/12/31 01:21:41;;;;;;;6.43;2.30;;;;;;;12.08;100.00;101172.25;818746;24;1377;-88
2021/12/31 01:22:01;;;;;;;5.00;2.20;;;;;;;12.05;100.00;101198.47;822556;24;1265;-87
2021/12/31 01:22:30;;;;;;;5.38;2.20;;;;;;;12.02;100.00;101198.50;824016;23;4235;-88
2021/12/31 01:22:53;;;;;;;5.35;2.10;;;;;;;11.98;100.00;101189.75;827419;23;1234;-88
2021/12/31 01:23:16;;;;;;;5.95;2.10;;;;;;;11.94;100.00;101167.06;826984;23;1253;-88
2021/12/31 01:23:37;;;;;;;5.72;2.20;;;;;;;11.91;100.00;101188.00;818597;24;1370;-87
2021/12/31 01:24:00;;;;;;;6.60;2.30;;;;;;;11.92;100.00;101174.00;826306;23;1017;-87
2021/12/31 01:24:25;;;;;;;6.05;2.40;;;;;;;11.91;100.00;101193.25;822657;24;1420;-88
2021/12/31 01:24:47;;;;;;;4.60;2.20;;;;;;;11.87;100.00;101194.13;818593;24;1218;-88
2021/12/31 01:25:09;;;;;;;5.88;2.20;;;;;;;11.86;100.00;101184.50;819037;24;1286;-88
2021/12/31 01:25:30;;;;;;;6.35;2.30;;;;;;;11.87;100.00;101175.78;820971;23;4513;-87
2021/12/31 01:25:51;;;;;;;5.32;2.20;;;;;;;11.86;100.00;101180.13;822787;23;1475;-88
2021/12/31 01:26:12;;;;;;;5.82;2.20;;;;;;;11.87;100.00;101173.16;822600;24;1296;-87
2021/12/31 01:26:33;;;;;;;5.93;2.08;;;;;;;11.87;100.00;101174.03;822821;24;1254;-88
2021/12/31 01:26:53;;;;;;;6.53;2.20;;;;;;;11.87;100.00;101173.16;822883;24;1306;-88
2021/12/31 01:27:18;;;;;;;6.07;2.20;;;;;;;11.84;100.00;101176.66;822799;24;1294;-88
2021/12/31 01:27:42;;;;;;;5.25;2.10;;;;;;;11.85;100.00;101172.28;822435;23;1243;-87
2021/12/31 01:28:04;;;;;;;5.70;2.20;;;;;;;11.83;100.00;101195.00;827094;23;1269;-87
2021/12/31 01:28:25;;;;;;;4.90;2.00;;;;;;;11.81;100.00;101189.78;822870;23;4315;-87
2021/12/31 01:28:45;;;;;;;5.10;2.20;;;;;;;11.85;100.00;101170.56;818309;24;1315;-87
2021/12/31 01:29:06;;;;;;;5.00;2.20;;;;;;;11.91;100.00;101186.25;819587;24;1194;-87
2021/12/31 01:29:27;;;;;;;6.72;2.30;;;;;;;12.02;100.00;101207.22;826654;23;1459;-87
2021/12/31 01:29:48;;;;;;;6.23;1.93;;;;;;;12.01;100.00;101202.00;825362;23;1227;-88
2021/12/31 01:30:13;;;;;;;5.35;1.90;;;;;;;11.97;100.00;101164.44;822789;23;1256;-88
2021/12/31 01:30:33;;;;;;;4.90;2.08;;;;;;;11.96;100.00;101173.16;822435;23;1208;-87
2021/12/31 01:30:54;;;;;;;6.75;2.45;;;;;;;11.96;100.00;101201.13;818117;24;1264;-87
2021/12/31 01:31:24;;;;;;;5.75;2.15;;;;;;;12.03;100.00;101169.66;814351;23;4459;-88
2021/12/31 01:31:44;;;;;;;5.60;2.08;;;;;;;12.06;100.00;101193.25;817204;24;857;-88
2021/12/31 01:32:06;;;;;;;5.03;1.97;;;;;;;12.04;100.00;101192.34;815031;24;1267;-88
2021/12/31 01:32:27;;;;;;;4.47;1.90;;;;;;;12.05;100.00;101175.75;815233;24;1284;-87
2021/12/31 01:32:48;;;;;;;5.53;2.00;;;;;;;12.23;100.00;101194.94;814937;24;1198;-87
2021/12/31 01:33:09;;;;;;;5.97;2.40;;;;;;;12.25;100.00;101186.19;811864;24;1334;-87
2021/12/31 01:33:30;;;;;;;6.07;2.25;;;;;;;12.24;100.00;101191.44;811509;24;936;-87
2021/12/31 01:33:52;;;;;;;5.47;2.03;;;;;;;12.19;100.00;101178.34;819423;24;1155;-88
2021/12/31 01:34:12;;;;;;;5.35;2.30;;;;;;;12.15;100.00;101176.59;818641;24;4244;-88
2021/12/31 01:34:37;;;;;;;5.20;1.93;;;;;;;12.12;100.00;101170.53;822651;24;1300;-88
2021/12/31 01:34:58;;;;;;;4.18;2.10;;;;;;;12.10;100.00;101173.13;823592;24;880;-87
2021/12/31 01:35:21;;;;;;;5.28;2.00;;;;;;;12.07;100.00;101199.34;820406;24;742;-87
2021/12/31 01:35:46;;;;;;;4.30;2.10;;;;;;;12.05;100.00;101211.59;822271;24;1043;-88
2021/12/31 01:36:06;;;;;;;5.15;2.15;;;;;;;12.01;100.00;101178.41;825286;23;1034;-87
2021/12/31 01:36:27;;;;;;;5.88;1.92;;;;;;;11.97;100.00;101200.25;822427;24;1244;-87
2021/12/31 01:36:48;;;;;;;5.38;1.90;;;;;;;11.93;100.00;101192.38;815461;24;1409;-87
2021/12/31 01:37:10;;;;;;;5.30;2.08;;;;;;;11.94;100.00;101182.78;818864;23;1205;-88
2021/12/31 01:37:31;;;;;;;4.63;2.10;;;;;;;11.93;100.00;101201.97;825330;23;4663;-88
2021/12/31 01:37:51;;;;;;;4.65;2.10;;;;;;;11.90;100.00;101208.06;826206;23;1095;-88
2021/12/31 01:38:18;;;;;;;5.77;2.10;;;;;;;11.90;100.00;101213.31;818659;24;1222;-87
2021/12/31 01:38:45;;;;;;;5.22;2.00;;;;;;;11.87;100.00;101179.25;823596;24;1509;-87
2021/12/31 01:39:08;;;;;;;7.55;2.47;;;;;;;11.86;100.00;101185.38;823329;24;1385;-88
2021/12/31 01:39:32;;;;;;;5.43;2.00;;;;;;;11.85;100.00;101180.13;819178;24;1388;-87
2021/12/31 01:39:57;;;;;;;5.90;2.20;;;;;;;11.81;100.00;101173.16;819843;24;980;-87
2021/12/31 01:40:17;;;;;;;5.03;2.10;;;;;;;11.82;100.00;101174.91;825448;23;4341;-88
2021/12/31 01:40:41;;;;;;;5.03;2.10;;;;;;;11.80;100.00;101174.06;818491;24;1211;-88
2021/12/31 01:41:04;;;;;;;6.65;2.15;;;;;;;11.80;100.00;101193.25;818676;24;1321;-88
2021/12/31 01:41:25;;;;;;;5.32;2.05;;;;;;;11.83;100.00;101197.63;822194;24;1385;-88
2021/12/31 01:41:48;;;;;;;4.83;2.10;;;;;;;11.82;100.00;101199.34;823181;24;1139;-88
2021/12/31 01:42:17;;;;;;;6.30;2.20;;;;;;;11.81;100.00;101208.09;819163;24;1398;-87
2021/12/31 01:42:38;;;;;;;4.78;2.15;;;;;;;11.80;100.00;101176.69;815121;24;1344;-88
2021/12/31 01:43:01;;;;;;;4.65;2.10;;;;;;;11.79;100.00;101175.78;818576;24;1420;-88
2021/12/31 01:43:22;;;;;;;4.45;2.00;;;;;;;11.79;100.00;101207.22;820724;24;4268;-87
2021/12/31 01:43:45;;;;;;;4.40;2.00;;;;;;;11.77;100.00;101190.66;818555;24;1255;-87
2021/12/31 01:44:06;;;;;;;5.78;2.15;;;;;;;11.77;100.00;101198.50;814764;24;1372;-87
2021/12/31 01:44:36;;;;;;;6.05;2.25;;;;;;;11.76;100.00;101217.69;817906;24;1321;-88
2021/12/31 01:45:09;;;;;;;5.63;2.15;;;;;;;11.77;100.00;101219.47;822210;24;1170;-87
2021/12/31 01:45:33;;;;;;;4.93;2.17;;;;;;;11.75;100.00;101180.19;818171;23;1209;-87
2021/12/31 01:45:59;;;;;;;4.63;2.17;;;;;;;11.75;100.00;101184.53;822628;24;1272;-87
2021/12/31 01:46:19;;;;;;;5.10;2.00;;;;;;;11.78;100.00;101195.00;821873;23;4226;-87
2021/12/31 01:46:57;;;;;;;5.57;2.10;;;;;;;11.77;100.00;101185.41;818738;24;1413;-87
2021/12/31 01:47:22;;;;;;;5.38;2.25;;;;;;;11.79;100.00;101195.88;822064;24;1236;-87
2021/12/31 01:47:57;;;;;;;6.32;2.10;;;;;;;11.85;100.00;101178.41;818285;24;1322;-88
2021/12/31 01:48:23;;;;;;;5.05;1.90;;;;;;;12.09;100.00;101181.88;818606;24;1289;-87
2021/12/31 01:49:02;;;;;;;6.13;2.00;;;;;;;12.07;100.00;101189.75;818984;24;1072;-87
2021/12/31 01:49:27;;;;;;;4.25;2.03;;;;;;;12.04;100.00;101194.97;821039;24;4237;-87
2021/12/31 01:49:56;;;;;;;5.07;2.10;;;;;;;12.04;100.00;101194.13;822972;24;1390;-87
2021/12/31 01:50:17;;;;;;;3.95;2.00;;;;;;;11.98;100.00;101194.16;818463;24;901;-87
2021/12/31 01:50:37;;;;;;;4.53;2.00;;;;;;;11.97;100.00;101164.44;822753;24;960;-86
2021/12/31 01:50:58;;;;;;;5.13;1.95;;;;;;;11.92;100.00;101203.72;817708;24;1281;-87
2021/12/31 01:51:21;;;;;;;4.68;1.90;;;;;;;11.91;100.00;101172.28;821765;24;1077;-87
2021/12/31 01:51:42;;;;;;;5.20;2.10;;;;;;;11.91;100.00;101196.72;823077;24;1349;-87
2021/12/31 01:52:04;;;;;;;5.05;2.08;;;;;;;11.98;100.00;101202.00;826633;23;1330;-87
2021/12/31 01:52:25;;;;;;;5.32;1.95;;;;;;;11.97;100.00;101205.50;825413;23;4226;-87
2021/12/31 01:52:45;;;;;;;5.13;2.00;;;;;;;11.98;100.00;101204.63;818882;24;1176;-88
2021/12/31 01:53:06;;;;;;;6.27;2.20;;;;;;;12.01;100.00;101170.53;814235;24;1200;-87
2021/12/31 01:53:27;;;;;;;4.97;2.08;;;;;;;11.99;100.00;101193.25;816547;24;1318;-87
2021/12/31 01:53:48;;;;;;;4.13;1.85;;;;;;;12.01;100.00;101202.00;814664;24;1380;-87
2021/12/31 01:54:11;;;;;;;4.90;2.05;;;;;;;11.99;100.00;101211.59;814583;24;1195;-88
2021/12/31 01:54:34;;;;;;;5.82;2.03;;;;;;;12.04;100.00;101199.34;817235;24;1295;-87
2021/12/31 01:54:58;;;;;;;4.72;1.92;;;;;;;12.16;100.00;101170.50;813812;24;1210;-87
2021/12/31 01:55:21;;;;;;;5.93;1.90;;;;;;;12.18;100.00;101180.97;817810;24;4229;-87
2021/12/31 01:55:45;;;;;;;4.75;1.80;;;;;;;12.16;100.00;101183.59;818326;24;1252;-87
2021/12/31 01:56:05;;;;;;;5.05;1.90;;;;;;;12.18;100.00;101179.22;826025;23;1214;-87
2021/12/31 01:56:33;;;;;;;6.07;2.10;;;;;;;12.24;100.00;101215.03;828145;23;1193;-88
2021/12/31 01:56:54;;;;;;;6.18;2.10;;;;;;;12.22;100.00;101174.84;825855;23;1412;-87
2021/12/31 01:57:15;;;;;;;5.45;1.80;;;;;;;12.17;100.00;101169.63;827124;23;1289;-87
2021/12/31 01:57:36;;;;;;;3.95;1.98;;;;;;;12.16;100.00;101182.75;823996;23;1003;-88
2021/12/31 01:58:01;;;;;;;5.20;2.22;;;;;;;12.11;100.00;101206.31;822346;23;1302;-88